7CA3 weather

Mercy Medical Center Heliport
Redding, California, United States

Public forecast

Using degrees Fahrenheit for public forecast. Weather courtesy of forecast.io.

Closest aviation weather report (METAR) to Mercy Medical Center Heliport

Closest report is Redding Municipal Airport, 6.0 nm (11.1 km) SE. Retrieved 2019/10/22 06:53 UTC (19 minutes ago):

KRDD 220653Z AUTO 00000KT 10SM CLR 14/06 A3022 RMK AO2 SLP231 T01440061

Closest aviation forecast (TAF) to Mercy Medical Center Heliport

Closest forecast is Redding Municipal Airport, 6.0 nm (11.1 km) SE. Retrieved 2019/10/22 06:22 UTC (50 minutes ago):

TAF KRDD 220520Z 2206/2306 35004KT P6SM SKC FM221800 36010KT P6SM SKC